createdAt,value
2018-02-20T00:01:34.107Z,29.90
2018-02-20T00:04:04.538Z,28.38
2018-02-20T00:06:35.022Z,30.62
2018-02-20T00:09:06.048Z,29.23
2018-02-20T00:11:36.668Z,28.92
2018-02-20T00:14:07.205Z,27.67
2018-02-20T00:16:37.838Z,28.40
2018-02-20T00:19:08.332Z,28.98
2018-02-20T00:21:38.824Z,30.88
2018-02-20T00:24:10.161Z,30.08
2018-02-20T00:26:40.617Z,29.17
2018-02-20T00:29:10.912Z,28.15
2018-02-20T00:31:41.656Z,29.92
2018-02-20T00:34:12.195Z,26.48
2018-02-20T00:36:44.033Z,29.00
2018-02-20T00:39:14.415Z,29.73
2018-02-20T00:41:45.054Z,29.05
2018-02-20T00:44:15.582Z,27.92
2018-02-20T00:46:47.033Z,26.83
2018-02-20T00:49:18.844Z,26.65
2018-02-20T00:51:50.819Z,28.20
2018-02-20T00:54:22.352Z,26.70
2018-02-20T00:56:53.038Z,25.65
2018-02-20T00:59:23.676Z,25.40
2018-02-20T01:01:54.144Z,27.08
2018-02-20T01:04:25.033Z,27.90
2018-02-20T01:06:55.402Z,28.55
2018-02-20T01:09:26.212Z,28.05
2018-02-20T01:11:56.502Z,29.55
2018-02-20T01:14:26.804Z,29.83
2018-02-20T01:16:57.662Z,29.08
2018-02-20T01:19:28.284Z,31.17
2018-02-20T01:21:58.604Z,31.60
2018-02-20T01:24:28.903Z,30.70
2018-02-20T01:26:59.447Z,31.42
2018-02-20T01:29:30.236Z,31.35
2018-02-20T01:32:01.134Z,28.45
2018-02-20T01:34:32.346Z,32.20
2018-02-20T01:37:02.868Z,32.45
2018-02-20T01:39:33.197Z,30.80
2018-02-20T01:42:04.400Z,31.77
2018-02-20T01:44:35.296Z,30.30
2018-02-20T01:47:06.209Z,30.40
2018-02-20T01:49:37.155Z,28.00
2018-02-20T01:52:07.489Z,30.08
2018-02-20T01:54:38.304Z,29.42
2018-02-20T01:57:09.050Z,28.98
2018-02-20T01:59:39.664Z,29.53
2018-02-20T02:02:10.855Z,29.55
2018-02-20T02:04:41.336Z,30.57
2018-02-20T02:07:11.577Z,30.80
2018-02-20T02:09:42.456Z,30.33
2018-02-20T02:12:13.222Z,29.60
2018-02-20T02:14:43.582Z,29.35
2018-02-20T02:17:14.244Z,30.00
2018-02-20T02:19:44.988Z,32.28
2018-02-20T02:22:18.199Z,30.27
2018-02-20T02:24:49.089Z,33.05
2018-02-20T02:27:19.894Z,34.80
2018-02-20T02:29:50.834Z,34.67
2018-02-20T02:32:21.657Z,37.00
2018-02-20T02:34:52.447Z,36.42
2018-02-20T02:37:23.512Z,36.70
2018-02-20T02:39:54.723Z,35.38
2018-02-20T02:42:25.936Z,35.30
2018-02-20T02:44:56.474Z,34.78
2018-02-20T02:47:27.304Z,36.15
2018-02-20T02:49:57.561Z,38.07
2018-02-20T02:52:27.641Z,37.20
2018-02-20T02:54:57.706Z,37.83
2018-02-20T02:57:28.286Z,37.38
2018-02-20T02:59:58.389Z,39.65
2018-02-20T03:02:29.255Z,37.70
2018-02-20T03:05:00.139Z,38.13
2018-02-20T03:07:31.334Z,39.13
2018-02-20T03:10:02.056Z,39.80
2018-02-20T03:12:32.793Z,40.28
2018-02-20T03:15:03.786Z,42.05
2018-02-20T03:17:35.247Z,40.17
2018-02-20T03:20:06.708Z,38.28
2018-02-20T03:22:37.498Z,40.70
2018-02-20T03:25:08.438Z,40.60
2018-02-20T03:27:39.383Z,37.03
2018-02-20T03:30:11.542Z,36.63
2018-02-20T03:32:42.753Z,34.25
2018-02-20T03:35:13.810Z,33.67
2018-02-20T03:37:45.991Z,35.10
2018-02-20T03:40:17.740Z,35.88
2018-02-20T03:42:49.342Z,38.00
2018-02-20T03:45:20.278Z,35.72
2018-02-20T03:47:51.396Z,36.23
2018-02-20T03:50:23.092Z,34.05
2018-02-20T03:52:54.282Z,33.55
2018-02-20T03:55:25.696Z,33.90
2018-02-20T03:57:57.021Z,34.28
2018-02-20T04:00:27.638Z,35.60
2018-02-20T04:02:58.305Z,36.42
2018-02-20T04:05:29.008Z,36.50
2018-02-20T04:07:59.782Z,34.70
2018-02-20T04:10:30.473Z,34.67
2018-02-20T04:13:00.759Z,33.97
2018-02-20T04:15:31.422Z,33.80
2018-02-20T04:18:02.122Z,34.28
2018-02-20T04:20:33.630Z,34.72
2018-02-20T04:23:03.985Z,39.05
2018-02-20T04:25:34.483Z,39.77
2018-02-20T04:28:05.732Z,37.60
2018-02-20T04:30:36.591Z,34.43
2018-02-20T04:33:07.445Z,37.00
2018-02-20T04:35:37.967Z,36.93
2018-02-20T04:38:08.671Z,39.08
2018-02-20T04:40:39.470Z,38.80
2018-02-20T04:43:09.873Z,34.57
2018-02-20T04:45:41.165Z,35.00
2018-02-20T04:48:12.579Z,35.97
2018-02-20T04:50:44.048Z,37.90
2018-02-20T04:53:15.407Z,39.63
2018-02-20T04:55:46.166Z,40.65
2018-02-20T04:58:16.886Z,40.85
2018-02-20T05:00:48.179Z,40.25
2018-02-20T05:03:18.458Z,41.85
2018-02-20T05:05:50.130Z,47.15
2018-02-20T05:08:20.459Z,45.80
2018-02-20T05:10:52.030Z,48.05
2018-02-20T05:13:23.084Z,48.28
2018-02-20T05:15:54.598Z,47.38
2018-02-20T05:18:25.876Z,48.08
2018-02-20T05:20:57.335Z,47.65
2018-02-20T05:23:29.991Z,42.65
2018-02-20T05:26:09.363Z,45.30
2018-02-20T05:28:42.261Z,45.00
2018-02-20T05:31:18.719Z,44.75
2018-02-20T05:33:51.036Z,45.67
2018-02-20T05:36:21.756Z,42.85
2018-02-20T05:38:52.438Z,45.38
2018-02-20T05:41:23.121Z,44.05
2018-02-20T05:43:57.460Z,41.60
2018-02-20T05:46:29.792Z,46.20
2018-02-20T05:49:08.134Z,43.90
2018-02-20T05:51:47.331Z,41.90
2018-02-20T05:54:19.958Z,41.10
2018-02-20T05:56:50.809Z,42.30
2018-02-20T05:59:22.318Z,42.15
2018-02-20T06:01:53.829Z,41.53
2018-02-20T06:04:26.571Z,43.33
2018-02-20T06:06:58.397Z,47.07
2018-02-20T06:09:30.209Z,51.63
2018-02-20T06:15:04.782Z,52.63
2018-02-20T06:17:37.087Z,48.33
2018-02-20T06:20:30.630Z,49.72
2018-02-20T06:23:02.462Z,46.15
2018-02-20T06:25:38.181Z,47.53
2018-02-20T06:28:13.226Z,47.75
2018-02-20T06:30:47.796Z,49.67
2018-02-20T06:33:19.225Z,44.30
2018-02-20T06:36:17.898Z,42.47
2018-02-20T06:38:50.008Z,49.65
2018-02-20T06:41:21.830Z,48.83
2018-02-20T06:44:04.396Z,49.40
2018-02-20T06:46:39.271Z,47.95
2018-02-20T06:49:11.693Z,47.33
2018-02-20T06:52:25.220Z,43.35
2018-02-20T06:55:00.520Z,44.88
2018-02-20T06:57:32.101Z,42.80
2018-02-20T07:00:05.645Z,44.72
2018-02-20T07:02:37.513Z,44.38
2018-02-20T07:05:12.830Z,45.80
2018-02-20T07:07:49.822Z,45.05
2018-02-20T07:10:22.094Z,45.90
2018-02-20T07:12:53.263Z,45.33
2018-02-20T07:15:24.812Z,49.97
2018-02-20T07:17:56.602Z,46.70
2018-02-20T07:20:30.320Z,45.55
2018-02-20T07:23:03.742Z,45.88
2018-02-20T07:25:34.591Z,43.63
2018-02-20T07:28:05.029Z,41.47
2018-02-20T07:30:42.855Z,42.05
2018-02-20T07:33:15.882Z,42.55
2018-02-20T07:35:54.058Z,41.15
2018-02-20T07:38:27.596Z,42.53
2018-02-20T07:41:00.681Z,38.57
2018-02-20T07:43:32.186Z,41.37
2018-02-20T07:46:04.118Z,40.55
2018-02-20T07:48:36.111Z,37.35
2018-02-20T07:51:08.998Z,40.30
2018-02-20T07:56:22.877Z,39.30
2018-02-20T07:58:54.287Z,41.67
2018-02-20T08:01:28.681Z,42.28
2018-02-20T08:04:00.624Z,37.28
2018-02-20T08:06:33.034Z,34.08
2018-02-20T08:09:03.847Z,38.40
2018-02-20T08:11:38.866Z,35.70
2018-02-20T08:14:09.552Z,33.50
2018-02-20T08:16:40.650Z,32.63
2018-02-20T08:19:12.676Z,35.15
2018-02-20T08:21:43.464Z,38.00
2018-02-20T08:24:14.572Z,37.03
2018-02-20T08:26:47.186Z,37.97
2018-02-20T08:29:20.678Z,34.38
2018-02-20T08:31:52.911Z,35.42
2018-02-20T08:34:26.142Z,32.90
2018-02-20T08:36:57.268Z,31.73
2018-02-20T08:39:30.630Z,32.70
2018-02-20T08:42:00.922Z,31.45
2018-02-20T08:44:41.347Z,30.62
2018-02-20T08:47:12.982Z,29.25
2018-02-20T08:49:47.734Z,27.52
2018-02-20T08:52:33.732Z,27.33
2018-02-20T08:55:04.722Z,27.27
2018-02-20T08:57:35.654Z,29.67
2018-02-20T09:00:06.532Z,29.25
2018-02-20T09:02:36.931Z,29.10
2018-02-20T09:05:09.001Z,29.85
2018-02-20T09:07:39.942Z,29.10
2018-02-20T09:10:11.570Z,31.00
2018-02-20T09:12:42.278Z,31.17
2018-02-20T09:15:13.274Z,29.58
2018-02-20T09:17:44.738Z,31.37
2018-02-20T09:20:15.531Z,28.58
2018-02-20T09:22:46.245Z,29.30
2018-02-20T09:25:35.073Z,27.85
2018-02-20T09:28:06.521Z,29.20
2018-02-20T09:30:41.394Z,28.63
2018-02-20T09:33:11.808Z,29.20
2018-02-20T09:35:42.829Z,30.35
2018-02-20T09:38:19.714Z,28.50
2018-02-20T09:40:50.612Z,27.42
2018-02-20T09:43:21.649Z,29.37
2018-02-20T09:45:54.553Z,27.35
2018-02-20T09:48:34.170Z,26.92
2018-02-20T09:51:05.613Z,28.90
2018-02-20T09:53:36.873Z,26.33
2018-02-20T09:56:08.422Z,25.35
2018-02-20T09:58:42.365Z,24.23
2018-02-20T10:01:14.896Z,26.87
2018-02-20T10:10:43.607Z,28.98
2018-02-20T10:13:17.925Z,27.85
2018-02-20T10:15:53.107Z,25.40
2018-02-20T10:18:24.962Z,26.98
2018-02-20T10:21:00.010Z,24.50
2018-02-20T10:23:34.981Z,25.70
2018-02-20T10:26:19.572Z,27.10
2018-02-20T10:28:51.269Z,27.37
2018-02-20T10:31:24.278Z,26.50
2018-02-20T10:33:56.250Z,25.60
2018-02-20T10:36:27.294Z,26.97
2018-02-20T10:38:57.986Z,25.52
2018-02-20T10:41:29.354Z,26.00
2018-02-20T10:43:59.702Z,25.42
2018-02-20T10:46:31.803Z,26.40
2018-02-20T10:49:03.462Z,27.83
2018-02-20T10:51:38.876Z,25.08
2018-02-20T10:54:14.476Z,24.60
2018-02-20T10:56:48.457Z,24.70
2018-02-20T10:59:19.326Z,22.47
2018-02-20T11:01:50.686Z,24.00
2018-02-20T11:04:22.133Z,24.80
2018-02-20T11:06:52.915Z,23.17
2018-02-20T11:09:24.282Z,21.20
2018-02-20T11:12:06.578Z,21.80
2018-02-20T11:14:39.509Z,20.23
2018-02-20T11:17:12.223Z,20.10
2018-02-20T11:19:46.194Z,19.70
2018-02-20T11:22:21.424Z,19.37
2018-02-20T11:25:13.550Z,17.58
2018-02-20T11:27:45.354Z,18.10
2018-02-20T11:30:16.562Z,18.10
2018-02-20T11:32:48.085Z,16.00
2018-02-20T11:35:19.302Z,16.62
2018-02-20T11:37:50.629Z,16.47
2018-02-20T11:40:22.282Z,18.10
2018-02-20T11:42:52.694Z,18.73
2018-02-20T11:45:27.652Z,17.40
2018-02-20T11:48:02.515Z,19.50
2018-02-20T11:50:36.292Z,18.85
2018-02-20T11:53:24.636Z,20.03
2018-02-20T11:56:19.595Z,21.15
2018-02-20T11:58:56.705Z,19.17
2018-02-20T12:01:28.199Z,20.98
2018-02-20T12:04:33.490Z,19.77
2018-02-20T12:07:07.935Z,21.73
2018-02-20T12:09:42.970Z,22.37
2018-02-20T12:12:19.419Z,23.45
2018-02-20T12:14:49.952Z,23.83
2018-02-20T12:17:24.414Z,23.65
2018-02-20T12:19:58.148Z,23.73
2018-02-20T12:22:37.085Z,22.70
2018-02-20T12:25:08.651Z,22.42
2018-02-20T12:27:39.737Z,25.23
2018-02-20T12:30:15.363Z,22.50
2018-02-20T12:32:47.744Z,26.20
2018-02-20T12:35:18.724Z,24.25
2018-02-20T12:38:04.639Z,24.73
2018-02-20T12:40:37.724Z,24.27
2018-02-20T12:46:18.587Z,25.10
2018-02-20T12:48:51.251Z,27.10
2018-02-20T12:54:06.561Z,25.70
2018-02-20T12:56:38.747Z,25.80
2018-02-20T12:59:10.343Z,24.77
2018-02-20T13:01:41.284Z,27.95
2018-02-20T13:04:12.173Z,26.52
2018-02-20T13:06:43.773Z,27.35
2018-02-20T13:09:15.065Z,25.73
2018-02-20T13:11:49.919Z,25.45
2018-02-20T13:14:20.637Z,26.40
2018-02-20T13:16:55.030Z,25.40
2018-02-20T13:19:26.439Z,24.17
2018-02-20T13:22:13.219Z,22.73
2018-02-20T13:24:49.956Z,22.08
2018-02-20T13:27:24.132Z,23.92
2018-02-20T13:30:01.729Z,22.65
2018-02-20T13:32:37.777Z,22.50
2018-02-20T13:35:09.448Z,22.55
2018-02-20T13:37:41.425Z,22.05
2018-02-20T13:40:12.204Z,22.42
2018-02-20T13:42:43.862Z,22.65
2018-02-20T13:45:15.832Z,21.90
2018-02-20T13:47:47.580Z,20.83
2018-02-20T13:50:19.494Z,20.30
2018-02-20T13:52:57.331Z,19.83
2018-02-20T13:55:28.024Z,19.42
2018-02-20T13:58:01.721Z,18.87
2018-02-20T14:00:33.263Z,21.60
2018-02-20T14:03:05.765Z,20.08
2018-02-20T14:05:38.312Z,22.08
2018-02-20T14:08:11.135Z,20.00
2018-02-20T14:10:50.208Z,20.35
2018-02-20T14:13:44.538Z,21.85
2018-02-20T14:16:15.021Z,20.37
2018-02-20T14:18:45.579Z,23.10
2018-02-20T14:21:16.295Z,20.55
2018-02-20T14:23:48.816Z,20.97
2018-02-20T14:26:20.327Z,21.70
2018-02-20T14:28:57.712Z,21.90
2018-02-20T14:31:30.581Z,21.55
2018-02-20T14:34:44.532Z,20.30
2018-02-20T14:37:18.479Z,22.50
2018-02-20T14:39:50.220Z,23.62
2018-02-20T14:42:38.929Z,22.85
2018-02-20T14:45:14.482Z,24.23
2018-02-20T14:47:48.899Z,24.33
2018-02-20T14:50:28.770Z,21.57
2018-02-20T14:53:00.974Z,23.25
2018-02-20T14:55:32.264Z,24.70
2018-02-20T14:58:04.006Z,24.58
2018-02-20T15:00:41.580Z,26.42
2018-02-20T15:03:16.006Z,26.80
2018-02-20T15:05:53.983Z,26.20
2018-02-20T15:08:25.751Z,28.00
2018-02-20T15:10:58.986Z,26.90
2018-02-20T15:14:21.671Z,26.87
2018-02-20T15:17:15.926Z,25.50
2018-02-20T15:20:13.208Z,25.62
2018-02-20T15:22:46.123Z,26.35
2018-02-20T15:25:21.512Z,24.13
2018-02-20T15:27:59.108Z,27.77
2018-02-20T15:30:40.723Z,29.92
2018-02-20T15:33:17.840Z,28.53
2018-02-20T15:36:19.976Z,30.00
2018-02-20T15:38:52.121Z,29.45
2018-02-20T15:41:26.051Z,29.35
2018-02-20T15:43:59.816Z,28.23
2018-02-20T15:46:31.546Z,30.60
2018-02-20T15:49:28.699Z,29.08
2018-02-20T15:52:21.174Z,29.83
2018-02-20T15:55:24.967Z,29.40
2018-02-20T15:57:59.163Z,29.58
2018-02-20T16:00:37.323Z,29.80
2018-02-20T16:03:11.675Z,30.33
2018-02-20T16:05:49.977Z,31.95
2018-02-20T16:08:39.307Z,28.95
2018-02-20T16:13:52.316Z,33.30
2018-02-20T16:16:24.321Z,32.40
2018-02-20T16:18:56.066Z,31.92
2018-02-20T16:21:30.962Z,33.08
2018-02-20T16:28:07.033Z,33.42
2018-02-20T16:30:41.638Z,32.25
2018-02-20T16:33:41.433Z,33.03
2018-02-20T16:36:13.486Z,33.80
2018-02-20T16:38:47.365Z,35.20
2018-02-20T16:41:19.312Z,32.47
2018-02-20T16:44:19.540Z,32.13
2018-02-20T16:50:31.429Z,34.00
2018-02-20T17:03:52.616Z,38.60
2018-02-20T17:06:25.103Z,37.78
2018-02-20T17:08:56.430Z,36.70
2018-02-20T17:12:11.235Z,35.88
2018-02-20T17:14:43.765Z,36.13
2018-02-20T17:21:07.023Z,38.53
2018-02-20T17:23:43.697Z,36.50
2018-02-20T17:26:21.422Z,36.50
2018-02-20T17:28:54.535Z,39.10
2018-02-20T17:31:26.040Z,38.58
2018-02-20T17:34:04.646Z,38.33
2018-02-20T17:36:37.408Z,38.97
2018-02-20T17:39:09.161Z,39.63
2018-02-20T17:41:40.832Z,39.78
2018-02-20T17:44:11.115Z,38.92
2018-02-20T17:46:41.538Z,39.42
2018-02-20T17:49:12.364Z,41.90
2018-02-20T17:51:42.832Z,43.28
2018-02-20T17:54:13.494Z,42.10
2018-02-20T17:56:46.390Z,42.13
2018-02-20T17:59:33.181Z,38.83
2018-02-20T18:02:03.749Z,41.75
2018-02-20T18:04:34.918Z,39.72
2018-02-20T18:07:06.777Z,41.50
2018-02-20T18:09:38.971Z,45.00
2018-02-20T18:12:11.654Z,45.08
2018-02-20T18:14:42.982Z,41.05
2018-02-20T18:17:19.036Z,40.90
2018-02-20T18:19:59.869Z,43.47
2018-02-20T18:22:31.169Z,42.95
2018-02-20T18:25:03.102Z,42.62
2018-02-20T18:27:34.419Z,41.65
2018-02-20T18:30:05.639Z,40.30
2018-02-20T18:32:37.487Z,44.95
2018-02-20T18:35:09.433Z,45.03
2018-02-20T18:37:45.455Z,44.22
2018-02-20T18:40:19.025Z,44.38
2018-02-20T18:42:50.719Z,45.25
2018-02-20T18:45:22.430Z,43.40
2018-02-20T18:47:56.043Z,44.83
2018-02-20T18:50:29.470Z,43.78
2018-02-20T18:53:31.352Z,43.00
2018-02-20T18:56:04.662Z,44.53
2018-02-20T18:59:15.415Z,44.42
2018-02-20T19:01:51.830Z,43.87
2018-02-20T19:04:40.694Z,43.30
2018-02-20T19:10:50.161Z,42.80
2018-02-20T19:13:21.940Z,43.75
2018-02-20T19:15:53.956Z,44.85
2018-02-20T19:18:25.299Z,45.38
2018-02-20T19:20:56.638Z,44.05
2018-02-20T19:23:30.331Z,40.83
2018-02-20T19:26:03.789Z,42.03
2018-02-20T19:28:35.590Z,45.58
2018-02-20T19:31:09.299Z,42.40
2018-02-20T19:33:41.276Z,43.70
2018-02-20T19:36:11.983Z,41.78
2018-02-20T19:38:44.118Z,43.10
2018-02-20T19:41:17.339Z,43.65
2018-02-20T19:43:52.123Z,43.28
2018-02-20T19:46:26.641Z,41.63
2018-02-20T19:49:00.917Z,42.60
2018-02-20T19:51:36.804Z,42.65
2018-02-20T19:54:15.154Z,41.58
2018-02-20T19:56:49.231Z,40.97
2018-02-20T19:59:34.102Z,42.40
2018-02-20T20:02:06.575Z,42.85
2018-02-20T20:04:40.294Z,42.20
2018-02-20T20:07:19.397Z,44.33
2018-02-20T20:09:53.279Z,43.80
2018-02-20T20:12:34.467Z,40.85
2018-02-20T20:15:09.092Z,44.00
2018-02-20T20:20:56.546Z,44.95
2018-02-20T20:23:28.084Z,42.60
2018-02-20T20:26:01.674Z,41.97
2018-02-20T20:28:36.077Z,42.17
2018-02-20T20:31:12.084Z,45.58
2018-02-20T20:33:48.848Z,39.10
2018-02-20T20:36:23.946Z,40.92
2018-02-20T20:38:56.877Z,41.37
2018-02-20T20:41:29.199Z,41.90
2018-02-20T20:44:06.818Z,41.13
2018-02-20T20:46:55.578Z,40.72
2018-02-20T20:49:30.061Z,42.72
2018-02-20T20:52:02.066Z,42.45
2018-02-20T20:54:33.610Z,44.33
2018-02-20T20:57:06.299Z,44.13
2018-02-20T20:59:39.800Z,44.75
2018-02-20T21:02:12.890Z,44.42
2018-02-20T21:04:45.112Z,45.88
2018-02-20T21:07:20.895Z,48.63
2018-02-20T21:09:51.953Z,45.90
2018-02-20T21:12:23.285Z,44.00
2018-02-20T21:14:55.170Z,44.13
2018-02-20T21:17:27.454Z,45.35
2018-02-20T21:20:02.229Z,45.65
2018-02-20T21:22:34.523Z,44.15
2018-02-20T21:25:08.990Z,42.00
2018-02-20T21:27:40.772Z,41.10
2018-02-20T21:30:12.827Z,42.83
2018-02-20T21:32:45.144Z,41.20
2018-02-20T21:35:18.796Z,44.13
2018-02-20T21:37:50.231Z,45.10
2018-02-20T21:40:20.559Z,46.03
2018-02-20T21:42:51.329Z,45.12
2018-02-20T21:45:22.784Z,48.07
2018-02-20T21:47:55.198Z,47.72
2018-02-20T21:50:27.637Z,44.15
2018-02-20T21:52:59.824Z,42.50
2018-02-20T21:55:30.651Z,43.35
2018-02-20T21:58:01.674Z,47.45
2018-02-20T22:00:32.191Z,48.72
2018-02-20T22:03:02.507Z,46.33
2018-02-20T22:05:33.396Z,47.05
2018-02-20T22:08:04.167Z,47.08
2018-02-20T22:10:34.907Z,46.20
2018-02-20T22:13:05.507Z,48.47
2018-02-20T22:15:36.287Z,46.50
2018-02-20T22:18:06.558Z,47.20
2018-02-20T22:20:37.593Z,47.10
2018-02-20T22:23:08.811Z,47.28
2018-02-20T22:25:40.330Z,42.55
2018-02-20T22:28:10.612Z,42.85
2018-02-20T22:30:42.135Z,44.10
2018-02-20T22:33:12.909Z,43.90
2018-02-20T22:35:44.429Z,43.80
2018-02-20T22:38:15.681Z,42.67
2018-02-20T22:40:46.635Z,44.28
2018-02-20T22:43:17.381Z,44.97
2018-02-20T22:45:48.443Z,45.20
2018-02-20T22:48:19.183Z,42.53
2018-02-20T22:50:49.469Z,43.50
2018-02-20T22:53:20.405Z,44.92
2018-02-20T22:55:51.463Z,43.37
2018-02-20T22:58:22.505Z,41.95
2018-02-20T23:00:54.127Z,43.65
2018-02-20T23:03:24.982Z,43.30
2018-02-20T23:05:57.054Z,44.10
2018-02-20T23:08:27.629Z,45.70
2018-02-20T23:10:58.420Z,44.67
2018-02-20T23:13:30.060Z,44.75
2018-02-20T23:16:08.071Z,44.28
2018-02-20T23:18:38.992Z,45.50
2018-02-20T23:21:09.267Z,43.63
2018-02-20T23:23:41.142Z,46.80
2018-02-20T23:26:11.827Z,45.55
2018-02-20T23:28:42.530Z,45.65
2018-02-20T23:31:13.136Z,46.05
2018-02-20T23:33:44.233Z,47.40
2018-02-20T23:36:15.453Z,48.25
2018-02-20T23:38:46.758Z,46.15
2018-02-20T23:41:20.509Z,45.78
2018-02-20T23:43:52.330Z,45.73
2018-02-20T23:46:23.024Z,46.13
2018-02-20T23:48:53.275Z,44.35
2018-02-20T23:51:28.702Z,46.13
2018-02-20T23:53:59.710Z,44.57
2018-02-20T23:56:30.367Z,43.28
2018-02-20T23:59:00.763Z,45.12
